This is the latest recevied weather packets stored in our database for station/object KB3KBR-WX. If no packets are shown the sender has not sent any weather packets the latest 1 day(s).
| Time | Temp. | Humidity | Pressure | Rain* | Wind** | Luminosity | Snow |
|---|---|---|---|---|---|---|---|
| 1778022479 | 15.56° C | 85% | 1005.1 hPa | 0 mm | 0.45 m/s, 347° | - | - |
| 1778022181 | 15.56° C | 84% | 1005 hPa | 0 mm | 0.89 m/s, 346° | - | - |
| 1778021879 | 15.56° C | 84% | 1005 hPa | 0.25 mm | 0.89 m/s, 347° | - | - |
| 1778021550 | 15.56° C | 84% | 1005 hPa | 0.76 mm | 0.45 m/s, 344° | - | - |
| 1778021324 | 16.11° C | 84% | 1004.9 hPa | 0.76 mm | 0.45 m/s, 339° | - | - |
| 1778021252 | 16.11° C | 84% | 1004.9 hPa | 0.76 mm | 0.45 m/s, 339° | - | - |
| 1778021249 | 16.11° C | 84% | 1004.9 hPa | 0.76 mm | 0.45 m/s, 339° | - | - |
| 1778020919 | 16.11° C | 83% | 1005 hPa | 0.76 mm | 0 m/s | - | - |
| 1778020592 | 16.11° C | 83% | 1005 hPa | 0.76 mm | 0 m/s | - | - |
| 1778020589 | 16.11° C | 83% | 1005 hPa | 0.76 mm | 0 m/s | - | - |
| 1778020259 | 16.11° C | 81% | 1005.2 hPa | 0.76 mm | 0.45 m/s, 161° | - | - |
| 1778019959 | 16.67° C | 80% | 1005.1 hPa | 0.76 mm | 0.89 m/s, 156° | - | - |
| 1778019659 | 16.67° C | 80% | 1005.1 hPa | 0.76 mm | 0.89 m/s, 144° | - | - |
| 1778019329 | 16.67° C | 80% | 1004.6 hPa | 0.76 mm | 0.45 m/s, 143° | - | - |
| 1778019000 | 16.67° C | 78% | 1004.5 hPa | 0.76 mm | 0.45 m/s, 126° | - | - |
| 1778018700 | 17.22° C | 76% | 1004.6 hPa | 0.76 mm | 0.89 m/s, 175° | - | - |
| 1778018399 | 17.78° C | 73% | 1004.7 hPa | 0.76 mm | 0.45 m/s, 177° | - | - |
| 1778018069 | 18.89° C | 68% | 1004.7 hPa | 0.25 mm | 0.45 m/s, 145° | - | - |
| 1778017739 | 19.44° C | 64% | 1004.4 hPa | 0 mm | 0.89 m/s, 154° | - | - |
| 1778017439 | 19.44° C | 61% | 1004.2 hPa | 0 mm | 0.89 m/s, 161° | - | - |
| 1778017139 | 19.44° C | 61% | 1004.3 hPa | 0 mm | 0.89 m/s, 171° | - | - |
| 1778016842 | 20° C | 60% | 1004.2 hPa | 0 mm | 0.89 m/s, 160° | - | - |
| 1778016839 | 20° C | 60% | 1004.2 hPa | 0 mm | 0.89 m/s, 160° | - | - |
| 1778016509 | 20° C | 60% | 1004.1 hPa | 0 mm | 0.89 m/s, 150° | - | - |
| 1778016210 | 20° C | 59% | 1004.1 hPa | 0 mm | 0.89 m/s, 174° | - | - |
* Rain latest hour (hover to see other rain measurements)
** Current wind speed in m/s (hover to see current wind gust speed)